Harrison Township, Michigan
Current Conditions -  °F | °C
As of 5:58 AM on Friday 24 Oct 2014 (Local Time) from KMTC Reporting Station
Haze Haze  
Wind Chill: 37°   Ceiling: Unl
Heat Index: 37°   Visibility: 6mi
Dew Point: 36°   Wind: 2mph
Humidity: 99%   Direction: 290°WNW
Pressure: 30.06"   Gusts: NA
Location:  42.58°N, 82.83°W
Report Text: KMTC 240958Z AUTO 29002KT 6SM BR CLR 03/02 A3006 RMK AO2 SLP186 T00250023 $
Loading
Personal Weather Stations






























Interactive Weather Map New forecast layout! Learn more

10-Day Weather Forecast

Advertisements
Track Severe Weather on mobile